createdAt,value
2022-10-03T00:02:31.427Z,12.68
2022-10-03T00:17:49.315Z,12.20
2022-10-03T00:33:03.360Z,11.43
2022-10-03T00:48:11.810Z,12.22
2022-10-03T01:03:48.887Z,11.66
2022-10-03T01:19:02.814Z,13.00
2022-10-03T01:34:20.934Z,11.41
2022-10-03T01:49:34.127Z,12.54
2022-10-03T02:04:41.601Z,12.56
2022-10-03T02:19:49.027Z,13.08
2022-10-03T02:34:56.972Z,13.01
2022-10-03T02:50:19.322Z,13.10
2022-10-03T03:05:23.910Z,14.25
2022-10-03T03:20:34.190Z,12.97
2022-10-03T03:35:38.454Z,12.93
2022-10-03T03:51:03.573Z,11.68
2022-10-03T04:06:17.474Z,11.75
2022-10-03T04:21:38.096Z,13.82
2022-10-03T04:36:53.811Z,12.57
2022-10-03T04:52:27.660Z,14.31
2022-10-03T05:07:32.879Z,14.12
2022-10-03T05:22:47.206Z,14.18
2022-10-03T05:38:04.282Z,14.51
2022-10-03T05:53:17.771Z,14.89
2022-10-03T06:08:40.543Z,14.92
2022-10-03T06:23:58.849Z,15.28
2022-10-03T06:39:15.310Z,16.31
2022-10-03T06:54:16.815Z,15.26
2022-10-03T07:09:18.246Z,14.74
2022-10-03T07:24:42.531Z,15.14
2022-10-03T07:39:50.088Z,14.79
2022-10-03T07:55:10.391Z,14.15
2022-10-03T08:10:31.489Z,16.13
2022-10-03T08:25:36.062Z,14.67
2022-10-03T08:40:40.572Z,15.33
2022-10-03T08:55:47.906Z,15.48
2022-10-03T09:11:08.126Z,16.36
2022-10-03T09:26:18.732Z,17.70
2022-10-03T09:41:20.159Z,17.54
2022-10-03T09:56:27.750Z,17.43
2022-10-03T10:11:35.479Z,18.48
2022-10-03T10:26:46.544Z,17.98
2022-10-03T10:42:06.830Z,18.43
2022-10-03T10:57:27.151Z,19.05
2022-10-03T11:12:47.257Z,19.33
2022-10-03T11:28:08.056Z,17.14
2022-10-03T11:43:12.564Z,18.54
2022-10-03T11:58:14.041Z,18.21
2022-10-03T12:13:23.176Z,17.77
2022-10-03T12:28:35.240Z,17.75
2022-10-03T12:43:49.958Z,19.01
2022-10-03T12:59:09.803Z,18.21
2022-10-03T13:14:23.478Z,17.79
2022-10-03T13:29:30.076Z,17.41
2022-10-03T13:44:34.887Z,16.91
2022-10-03T13:59:39.394Z,16.77
2022-10-03T14:14:48.679Z,16.49
2022-10-03T14:29:52.949Z,16.18
2022-10-03T14:44:56.528Z,15.58
2022-10-03T14:59:58.477Z,15.07
2022-10-03T15:15:05.874Z,15.24
2022-10-03T15:30:07.943Z,15.07
2022-10-03T15:45:17.439Z,14.64
2022-10-03T16:00:24.710Z,13.81
2022-10-03T16:15:29.607Z,13.97
2022-10-03T16:30:36.329Z,14.03
2022-10-03T16:45:44.030Z,14.24
2022-10-03T17:16:44.188Z,13.87
2022-10-03T17:31:46.020Z,13.99
2022-10-03T17:46:56.555Z,13.55
2022-10-03T18:02:04.692Z,13.39
2022-10-03T18:17:09.193Z,13.13
2022-10-03T18:32:10.619Z,13.23
2022-10-03T18:47:27.158Z,13.08
2022-10-03T19:02:34.918Z,13.02
2022-10-03T19:17:45.572Z,12.86
2022-10-03T19:32:50.200Z,13.21
2022-10-03T19:47:54.353Z,12.67
2022-10-03T20:03:16.571Z,12.48
2022-10-03T20:18:21.155Z,12.25
2022-10-03T20:33:30.592Z,12.41
2022-10-03T20:48:35.335Z,12.18
2022-10-03T21:04:06.251Z,11.77
2022-10-03T21:19:15.670Z,11.84
2022-10-03T21:34:17.087Z,11.75
2022-10-03T21:49:33.878Z,11.73
2022-10-03T22:16:13.377Z,11.96
2022-10-03T22:31:34.620Z,12.10
2022-10-03T22:46:37.472Z,12.19
2022-10-03T23:01:42.554Z,12.25
2022-10-03T23:17:02.604Z,11.93
2022-10-03T23:32:05.616Z,12.03
2022-10-03T23:47:10.384Z,12.19
